sensor_id;sensor_type;location;lat;lon;timestamp;pressure;altitude;pressure_sealevel;temperature;humidity
7660;BME280;3872;47.902;8.162;2024-01-30T00:00:05;93175.53;;;3.59;91.50
7660;BME280;3872;47.902;8.162;2024-01-30T00:02:33;93175.56;;;3.22;95.68
7660;BME280;3872;47.902;8.162;2024-01-30T00:05:01;93167.41;;;3.00;100.00
7660;BME280;3872;47.902;8.162;2024-01-30T00:07:28;93168.69;;;3.28;96.15
7660;BME280;3872;47.902;8.162;2024-01-30T00:09:55;93166.03;;;3.16;98.09
7660;BME280;3872;47.902;8.162;2024-01-30T00:12:21;93173.03;;;3.15;94.47
7660;BME280;3872;47.902;8.162;2024-01-30T00:14:48;93174.13;;;3.08;97.60
7660;BME280;3872;47.902;8.162;2024-01-30T00:17:14;93166.81;;;3.35;94.65
7660;BME280;3872;47.902;8.162;2024-01-30T00:19:41;93167.84;;;3.15;97.01
7660;BME280;3872;47.902;8.162;2024-01-30T00:22:09;93174.22;;;3.20;93.72
7660;BME280;3872;47.902;8.162;2024-01-30T00:24:35;93169.56;;;3.03;96.27
7660;BME280;3872;47.902;8.162;2024-01-30T00:27:02;93168.78;;;2.35;100.00
7660;BME280;3872;47.902;8.162;2024-01-30T00:29:29;93160.31;;;2.89;100.00
7660;BME280;3872;47.902;8.162;2024-01-30T00:31:59;93176.56;;;2.35;100.00
7660;BME280;3872;47.902;8.162;2024-01-30T00:34:26;93166.31;;;1.90;100.00
7660;BME280;3872;47.902;8.162;2024-01-30T00:36:53;93162.06;;;2.77;100.00
7660;BME280;3872;47.902;8.162;2024-01-30T00:39:20;93163.06;;;2.76;100.00
7660;BME280;3872;47.902;8.162;2024-01-30T00:41:47;93165.63;;;3.19;97.62
7660;BME280;3872;47.902;8.162;2024-01-30T00:44:13;93170.25;;;2.49;100.00
7660;BME280;3872;47.902;8.162;2024-01-30T00:46:40;93165.59;;;2.58;100.00
7660;BME280;3872;47.902;8.162;2024-01-30T00:49:06;93163.84;;;2.52;100.00
7660;BME280;3872;47.902;8.162;2024-01-30T00:51:33;93166.94;;;2.42;100.00
7660;BME280;3872;47.902;8.162;2024-01-30T00:53:59;93154.19;;;2.84;100.00
7660;BME280;3872;47.902;8.162;2024-01-30T00:56:28;93164.88;;;1.94;100.00
7660;BME280;3872;47.902;8.162;2024-01-30T00:58:55;93158.78;;;2.82;100.00
7660;BME280;3872;47.902;8.162;2024-01-30T01:01:22;93166.34;;;2.65;100.00
7660;BME280;3872;47.902;8.162;2024-01-30T01:03:48;93165.53;;;2.15;100.00
7660;BME280;3872;47.902;8.162;2024-01-30T01:06:14;93163.69;;;2.71;100.00
7660;BME280;3872;47.902;8.162;2024-01-30T01:08:40;93166.16;;;2.85;99.44
7660;BME280;3872;47.902;8.162;2024-01-30T01:11:07;93165.59;;;2.83;100.00
7660;BME280;3872;47.902;8.162;2024-01-30T01:13:35;93171.31;;;2.42;100.00
7660;BME280;3872;47.902;8.162;2024-01-30T01:16:01;93173.22;;;2.78;100.00
7660;BME280;3872;47.902;8.162;2024-01-30T01:18:29;93165.44;;;3.14;99.48
7660;BME280;3872;47.902;8.162;2024-01-30T01:20:55;93166.06;;;2.73;100.00
7660;BME280;3872;47.902;8.162;2024-01-30T01:23:22;93177.38;;;2.35;100.00
7660;BME280;3872;47.902;8.162;2024-01-30T01:25:49;93174.94;;;2.16;100.00
7660;BME280;3872;47.902;8.162;2024-01-30T01:28:15;93167.72;;;2.67;100.00
7660;BME280;3872;47.902;8.162;2024-01-30T01:30:43;93166.69;;;2.25;100.00
7660;BME280;3872;47.902;8.162;2024-01-30T01:33:10;93168.22;;;2.33;100.00
7660;BME280;3872;47.902;8.162;2024-01-30T01:35:39;93155.25;;;2.94;100.00
7660;BME280;3872;47.902;8.162;2024-01-30T01:38:06;93154.84;;;2.97;100.00
7660;BME280;3872;47.902;8.162;2024-01-30T01:40:32;93158.75;;;3.25;100.00
7660;BME280;3872;47.902;8.162;2024-01-30T01:43:03;93156.06;;;3.31;98.88
7660;BME280;3872;47.902;8.162;2024-01-30T01:45:30;93154.44;;;3.48;97.26
7660;BME280;3872;47.902;8.162;2024-01-30T01:47:58;93153.09;;;3.09;100.00
7660;BME280;3872;47.902;8.162;2024-01-30T01:50:25;93154.31;;;3.07;99.43
7660;BME280;3872;47.902;8.162;2024-01-30T01:52:52;93146.53;;;3.25;95.46
7660;BME280;3872;47.902;8.162;2024-01-30T01:55:21;93157.00;;;3.19;94.07
7660;BME280;3872;47.902;8.162;2024-01-30T01:57:49;93152.09;;;3.10;94.56
7660;BME280;3872;47.902;8.162;2024-01-30T02:00:16;93151.56;;;3.38;92.51
7660;BME280;3872;47.902;8.162;2024-01-30T02:02:45;93151.13;;;2.87;96.04
7660;BME280;3872;47.902;8.162;2024-01-30T02:05:14;93158.66;;;3.13;93.08
7660;BME280;3872;47.902;8.162;2024-01-30T02:07:40;93140.75;;;3.23;91.79
7660;BME280;3872;47.902;8.162;2024-01-30T02:10:08;93159.59;;;2.57;97.52
7660;BME280;3872;47.902;8.162;2024-01-30T02:12:35;93154.84;;;3.15;92.20
7660;BME280;3872;47.902;8.162;2024-01-30T02:15:02;93155.78;;;3.03;90.79
7660;BME280;3872;47.902;8.162;2024-01-30T02:17:30;93152.72;;;2.88;94.44
7660;BME280;3872;47.902;8.162;2024-01-30T02:19:57;93155.31;;;3.06;92.55
7660;BME280;3872;47.902;8.162;2024-01-30T02:22:30;93159.38;;;3.20;89.88
7660;BME280;3872;47.902;8.162;2024-01-30T02:24:58;93156.53;;;2.67;95.13
7660;BME280;3872;47.902;8.162;2024-01-30T02:27:25;93147.81;;;2.80;94.06
7660;BME280;3872;47.902;8.162;2024-01-30T02:29:52;93150.84;;;2.95;91.61
7660;BME280;3872;47.902;8.162;2024-01-30T02:32:18;93152.78;;;2.99;93.76
7660;BME280;3872;47.902;8.162;2024-01-30T02:34:45;93151.44;;;2.97;92.90
7660;BME280;3872;47.902;8.162;2024-01-30T02:37:11;93149.63;;;2.97;91.19
7660;BME280;3872;47.902;8.162;2024-01-30T02:39:39;93150.78;;;3.01;90.89
7660;BME280;3872;47.902;8.162;2024-01-30T02:42:06;93149.63;;;2.97;91.55
7660;BME280;3872;47.902;8.162;2024-01-30T02:44:32;93147.09;;;3.09;87.87
7660;BME280;3872;47.902;8.162;2024-01-30T02:47:00;93144.13;;;3.24;86.39
7660;BME280;3872;47.902;8.162;2024-01-30T02:49:26;93146.38;;;2.84;89.64
7660;BME280;3872;47.902;8.162;2024-01-30T02:51:53;93152.19;;;2.61;92.62
7660;BME280;3872;47.902;8.162;2024-01-30T02:54:20;93150.34;;;2.18;98.63
7660;BME280;3872;47.902;8.162;2024-01-30T02:56:48;93148.50;;;1.94;100.00
7660;BME280;3872;47.902;8.162;2024-01-30T02:59:14;93148.94;;;1.91;100.00
7660;BME280;3872;47.902;8.162;2024-01-30T03:01:44;93147.88;;;2.73;97.64
7660;BME280;3872;47.902;8.162;2024-01-30T03:04:11;93138.00;;;3.00;92.99
7660;BME280;3872;47.902;8.162;2024-01-30T03:06:38;93139.69;;;3.12;90.39
7660;BME280;3872;47.902;8.162;2024-01-30T03:09:04;93144.50;;;2.23;96.54
7660;BME280;3872;47.902;8.162;2024-01-30T03:11:31;93137.06;;;2.76;94.04
7660;BME280;3872;47.902;8.162;2024-01-30T03:13:59;93148.31;;;2.88;92.00
7660;BME280;3872;47.902;8.162;2024-01-30T03:16:25;93148.41;;;2.57;94.05
7660;BME280;3872;47.902;8.162;2024-01-30T03:18:52;93140.59;;;2.82;91.87
7660;BME280;3872;47.902;8.162;2024-01-30T03:21:18;93152.59;;;1.45;100.00
7660;BME280;3872;47.902;8.162;2024-01-30T03:23:45;93150.59;;;1.47;100.00
7660;BME280;3872;47.902;8.162;2024-01-30T03:26:12;93158.91;;;1.94;100.00
7660;BME280;3872;47.902;8.162;2024-01-30T03:28:40;93159.59;;;2.57;99.96
7660;BME280;3872;47.902;8.162;2024-01-30T03:31:07;93156.66;;;2.29;99.83
7660;BME280;3872;47.902;8.162;2024-01-30T03:33:34;93157.03;;;1.32;100.00
7660;BME280;3872;47.902;8.162;2024-01-30T03:36:03;93162.50;;;1.62;100.00
7660;BME280;3872;47.902;8.162;2024-01-30T03:38:29;93159.91;;;1.93;100.00
7660;BME280;3872;47.902;8.162;2024-01-30T03:40:58;93156.19;;;1.44;100.00
7660;BME280;3872;47.902;8.162;2024-01-30T03:43:24;93164.06;;;1.25;100.00
7660;BME280;3872;47.902;8.162;2024-01-30T03:45:52;93162.69;;;1.60;100.00
7660;BME280;3872;47.902;8.162;2024-01-30T03:48:20;93169.44;;;2.06;100.00
7660;BME280;3872;47.902;8.162;2024-01-30T03:50:47;93165.13;;;2.43;99.05
7660;BME280;3872;47.902;8.162;2024-01-30T03:53:14;93164.56;;;2.41;99.56
7660;BME280;3872;47.902;8.162;2024-01-30T03:55:40;93166.19;;;2.35;96.90
7660;BME280;3872;47.902;8.162;2024-01-30T03:58:07;93178.03;;;2.31;95.75
7660;BME280;3872;47.902;8.162;2024-01-30T04:00:33;93173.34;;;2.15;96.61
7660;BME280;3872;47.902;8.162;2024-01-30T04:03:00;93169.63;;;2.04;98.99
7660;BME280;3872;47.902;8.162;2024-01-30T04:05:28;93170.78;;;2.08;99.30
7660;BME280;3872;47.902;8.162;2024-01-30T04:07:55;93159.78;;;1.81;100.00
7660;BME280;3872;47.902;8.162;2024-01-30T04:10:21;93165.41;;;1.40;100.00
7660;BME280;3872;47.902;8.162;2024-01-30T04:12:48;93165.38;;;2.41;100.00
7660;BME280;3872;47.902;8.162;2024-01-30T04:15:15;93170.25;;;2.74;93.26
7660;BME280;3872;47.902;8.162;2024-01-30T04:17:42;93166.09;;;2.48;93.46
7660;BME280;3872;47.902;8.162;2024-01-30T04:20:13;93168.97;;;2.09;98.58
7660;BME280;3872;47.902;8.162;2024-01-30T04:22:42;93161.03;;;2.28;96.87
7660;BME280;3872;47.902;8.162;2024-01-30T04:25:09;93156.91;;;2.46;94.36
7660;BME280;3872;47.902;8.162;2024-01-30T04:27:36;93163.00;;;2.08;94.26
7660;BME280;3872;47.902;8.162;2024-01-30T04:30:03;93160.75;;;2.18;92.57
7660;BME280;3872;47.902;8.162;2024-01-30T04:32:29;93157.00;;;2.08;95.51
7660;BME280;3872;47.902;8.162;2024-01-30T04:34:56;93158.47;;;1.21;100.00
7660;BME280;3872;47.902;8.162;2024-01-30T04:37:23;93162.94;;;1.01;100.00
7660;BME280;3872;47.902;8.162;2024-01-30T04:39:51;93169.09;;;1.57;100.00
7660;BME280;3872;47.902;8.162;2024-01-30T04:42:17;93165.00;;;1.75;100.00
7660;BME280;3872;47.902;8.162;2024-01-30T04:44:44;93169.72;;;1.91;97.35
7660;BME280;3872;47.902;8.162;2024-01-30T04:47:10;93174.78;;;2.11;93.75
7660;BME280;3872;47.902;8.162;2024-01-30T04:49:38;93172.84;;;2.00;97.13
7660;BME280;3872;47.902;8.162;2024-01-30T04:52:05;93174.72;;;2.17;95.21
7660;BME280;3872;47.902;8.162;2024-01-30T04:54:31;93164.72;;;1.51;100.00
7660;BME280;3872;47.902;8.162;2024-01-30T04:56:59;93168.97;;;1.84;100.00
7660;BME280;3872;47.902;8.162;2024-01-30T04:59:26;93169.06;;;1.95;100.00
7660;BME280;3872;47.902;8.162;2024-01-30T05:01:53;93171.34;;;2.17;99.03
7660;BME280;3872;47.902;8.162;2024-01-30T05:04:19;93177.91;;;1.50;100.00
7660;BME280;3872;47.902;8.162;2024-01-30T05:06:47;93175.66;;;1.98;96.14
7660;BME280;3872;47.902;8.162;2024-01-30T05:09:14;93177.69;;;2.21;93.88
7660;BME280;3872;47.902;8.162;2024-01-30T05:11:41;93180.78;;;1.73;99.14
7660;BME280;3872;47.902;8.162;2024-01-30T05:14:09;93180.84;;;1.60;100.00
7660;BME280;3872;47.902;8.162;2024-01-30T05:16:37;93179.78;;;1.30;100.00
7660;BME280;3872;47.902;8.162;2024-01-30T05:19:04;93177.78;;;2.08;100.00
7660;BME280;3872;47.902;8.162;2024-01-30T05:21:30;93179.00;;;1.74;100.00
7660;BME280;3872;47.902;8.162;2024-01-30T05:23:57;93178.19;;;1.29;100.00
7660;BME280;3872;47.902;8.162;2024-01-30T05:26:23;93176.03;;;2.02;100.00
7660;BME280;3872;47.902;8.162;2024-01-30T05:28:50;93173.56;;;2.38;96.39
7660;BME280;3872;47.902;8.162;2024-01-30T05:31:18;93174.31;;;1.89;99.81
7660;BME280;3872;47.902;8.162;2024-01-30T05:33:44;93175.97;;;1.39;100.00
7660;BME280;3872;47.902;8.162;2024-01-30T05:36:11;93176.06;;;1.95;100.00
7660;BME280;3872;47.902;8.162;2024-01-30T05:38:39;93180.34;;;1.83;98.91
7660;BME280;3872;47.902;8.162;2024-01-30T05:41:05;93179.63;;;2.01;94.96
7660;BME280;3872;47.902;8.162;2024-01-30T05:43:32;93174.63;;;1.68;98.08
7660;BME280;3872;47.902;8.162;2024-01-30T05:45:58;93173.97;;;1.41;100.00
7660;BME280;3872;47.902;8.162;2024-01-30T05:48:26;93173.53;;;1.44;100.00
7660;BME280;3872;47.902;8.162;2024-01-30T05:50:53;93172.50;;;2.21;100.00
7660;BME280;3872;47.902;8.162;2024-01-30T05:53:20;93176.91;;;2.45;99.09
7660;BME280;3872;47.902;8.162;2024-01-30T05:55:47;93172.84;;;2.00;100.00
7660;BME280;3872;47.902;8.162;2024-01-30T05:58:14;93177.19;;;1.74;100.00
7660;BME280;3872;47.902;8.162;2024-01-30T06:00:40;93177.41;;;1.73;100.00
7660;BME280;3872;47.902;8.162;2024-01-30T06:03:07;93177.19;;;1.74;100.00
7660;BME280;3872;47.902;8.162;2024-01-30T06:05:35;93177.00;;;1.76;100.00
7660;BME280;3872;47.902;8.162;2024-01-30T06:08:02;93177.63;;;2.03;100.00
7660;BME280;3872;47.902;8.162;2024-01-30T06:10:28;93175.78;;;2.10;99.88
7660;BME280;3872;47.902;8.162;2024-01-30T06:12:55;93174.09;;;2.22;100.00
7660;BME280;3872;47.902;8.162;2024-01-30T06:15:22;93179.31;;;2.47;96.58
7660;BME280;3872;47.902;8.162;2024-01-30T06:17:48;93180.56;;;2.38;93.08
7660;BME280;3872;47.902;8.162;2024-01-30T06:20:15;93179.88;;;1.92;98.14
7660;BME280;3872;47.902;8.162;2024-01-30T06:22:43;93182.78;;;1.71;97.98
7660;BME280;3872;47.902;8.162;2024-01-30T06:25:10;93181.53;;;1.42;100.00
7660;BME280;3872;47.902;8.162;2024-01-30T06:27:37;93184.72;;;1.44;100.00
7660;BME280;3872;47.902;8.162;2024-01-30T06:30:05;93185.22;;;2.29;99.18
7660;BME280;3872;47.902;8.162;2024-01-30T06:32:32;93180.56;;;2.38;97.48
7660;BME280;3872;47.902;8.162;2024-01-30T06:35:00;93183.06;;;1.94;100.00
7660;BME280;3872;47.902;8.162;2024-01-30T06:37:27;93182.22;;;2.01;99.71
7660;BME280;3872;47.902;8.162;2024-01-30T06:39:55;93179.09;;;1.03;100.00
7660;BME280;3872;47.902;8.162;2024-01-30T06:42:22;93189.44;;;1.03;100.00
7660;BME280;3872;47.902;8.162;2024-01-30T06:44:48;93184.03;;;1.17;100.00
7660;BME280;3872;47.902;8.162;2024-01-30T06:47:15;93190.34;;;2.11;100.00
7660;BME280;3872;47.902;8.162;2024-01-30T06:49:42;93189.56;;;1.72;100.00
7660;BME280;3872;47.902;8.162;2024-01-30T06:52:09;93187.13;;;1.39;100.00
7660;BME280;3872;47.902;8.162;2024-01-30T06:54:36;93182.66;;;1.98;100.00
7660;BME280;3872;47.902;8.162;2024-01-30T06:57:04;93182.38;;;1.74;100.00
7660;BME280;3872;47.902;8.162;2024-01-30T06:59:34;93191.38;;;1.72;100.00
7660;BME280;3872;47.902;8.162;2024-01-30T07:02:00;93195.16;;;2.07;98.53
7660;BME280;3872;47.902;8.162;2024-01-30T07:04:27;93198.16;;;2.11;96.04
7660;BME280;3872;47.902;8.162;2024-01-30T07:06:54;93193.59;;;2.00;97.78
7660;BME280;3872;47.902;8.162;2024-01-30T07:09:20;93200.66;;;1.54;100.00
7660;BME280;3872;47.902;8.162;2024-01-30T07:11:48;93194.19;;;1.70;99.49
7660;BME280;3872;47.902;8.162;2024-01-30T07:14:16;93197.59;;;1.20;100.00
7660;BME280;3872;47.902;8.162;2024-01-30T07:16:43;93201.97;;;1.70;100.00
7660;BME280;3872;47.902;8.162;2024-01-30T07:19:10;93208.50;;;1.79;100.00
7660;BME280;3872;47.902;8.162;2024-01-30T07:21:36;93198.16;;;2.11;99.36
7660;BME280;3872;47.902;8.162;2024-01-30T07:24:06;93203.63;;;2.52;96.25
7660;BME280;3872;47.902;8.162;2024-01-30T07:26:32;93190.84;;;1.63;100.00
7660;BME280;3872;47.902;8.162;2024-01-30T07:29:01;93197.34;;;2.10;100.00
7660;BME280;3872;47.902;8.162;2024-01-30T07:31:30;93209.72;;;1.77;100.00
7660;BME280;3872;47.902;8.162;2024-01-30T07:33:56;93202.44;;;2.23;100.00
7660;BME280;3872;47.902;8.162;2024-01-30T07:36:23;93209.84;;;2.51;97.69
7660;BME280;3872;47.902;8.162;2024-01-30T07:38:49;93204.22;;;2.54;94.88
7660;BME280;3872;47.902;8.162;2024-01-30T07:41:17;93209.75;;;1.64;100.00
7660;BME280;3872;47.902;8.162;2024-01-30T07:43:44;93208.31;;;2.68;98.14
7660;BME280;3872;47.902;8.162;2024-01-30T07:46:10;93213.28;;;2.45;97.66
7660;BME280;3872;47.902;8.162;2024-01-30T07:48:38;93207.31;;;2.88;93.86
7660;BME280;3872;47.902;8.162;2024-01-30T07:51:05;93213.31;;;2.88;94.55
7660;BME280;3872;47.902;8.162;2024-01-30T07:53:32;93214.72;;;2.91;93.24
7660;BME280;3872;47.902;8.162;2024-01-30T07:55:58;93210.38;;;2.60;93.60
7660;BME280;3872;47.902;8.162;2024-01-30T07:58:25;93221.72;;;1.71;100.00
7660;BME280;3872;47.902;8.162;2024-01-30T08:00:52;93212.31;;;2.64;97.69
7660;BME280;3872;47.902;8.162;2024-01-30T08:03:19;93213.13;;;3.08;94.29
7660;BME280;3872;47.902;8.162;2024-01-30T08:05:47;93214.78;;;3.02;94.22
7660;BME280;3872;47.902;8.162;2024-01-30T08:08:13;93214.06;;;3.13;93.69
7660;BME280;3872;47.902;8.162;2024-01-30T08:10:40;93210.03;;;3.54;90.22
7660;BME280;3872;47.902;8.162;2024-01-30T08:13:06;93213.97;;;3.27;91.69
7660;BME280;3872;47.902;8.162;2024-01-30T08:15:34;93211.78;;;3.60;89.71
7660;BME280;3872;47.902;8.162;2024-01-30T08:18:00;93215.31;;;3.47;91.48
7660;BME280;3872;47.902;8.162;2024-01-30T08:20:27;93203.63;;;3.38;90.88
7660;BME280;3872;47.902;8.162;2024-01-30T08:22:55;93203.63;;;3.38;92.23
7660;BME280;3872;47.902;8.162;2024-01-30T08:25:22;93200.22;;;3.20;100.00
7660;BME280;3872;47.902;8.162;2024-01-30T08:27:48;93205.97;;;2.60;100.00
7660;BME280;3872;47.902;8.162;2024-01-30T08:30:15;93201.38;;;2.62;100.00
7660;BME280;3872;47.902;8.162;2024-01-30T08:32:42;93202.25;;;4.14;96.93
7660;BME280;3872;47.902;8.162;2024-01-30T08:35:08;93200.13;;;4.22;96.27
7660;BME280;3872;47.902;8.162;2024-01-30T08:37:35;93205.00;;;4.19;96.44
7660;BME280;3872;47.902;8.162;2024-01-30T08:40:03;93187.28;;;4.62;93.93
7660;BME280;3872;47.902;8.162;2024-01-30T08:42:30;93188.00;;;4.16;99.20
7660;BME280;3872;47.902;8.162;2024-01-30T08:44:57;93192.16;;;3.58;100.00
7660;BME280;3872;47.902;8.162;2024-01-30T08:47:23;93184.16;;;4.95;93.89
7660;BME280;3872;47.902;8.162;2024-01-30T08:49:50;93173.13;;;4.58;98.08
7660;BME280;3872;47.902;8.162;2024-01-30T08:52:17;93183.88;;;4.62;100.00
7660;BME280;3872;47.902;8.162;2024-01-30T08:54:43;93181.28;;;4.62;98.40
7660;BME280;3872;47.902;8.162;2024-01-30T08:57:12;93184.06;;;4.37;100.00
7660;BME280;3872;47.902;8.162;2024-01-30T08:59:39;93181.75;;;5.17;97.10
7660;BME280;3872;47.902;8.162;2024-01-30T09:02:05;93182.72;;;5.51;94.23
7660;BME280;3872;47.902;8.162;2024-01-30T09:04:32;93177.00;;;5.66;90.09
7660;BME280;3872;47.902;8.162;2024-01-30T09:06:59;93175.38;;;5.76;90.35
7660;BME280;3872;47.902;8.162;2024-01-30T09:09:25;93176.31;;;5.19;100.00
7660;BME280;3872;47.902;8.162;2024-01-30T09:11:52;93191.25;;;5.46;99.46
7660;BME280;3872;47.902;8.162;2024-01-30T09:14:20;93184.00;;;5.25;98.99
7660;BME280;3872;47.902;8.162;2024-01-30T09:16:47;93189.78;;;5.39;97.31
7660;BME280;3872;47.902;8.162;2024-01-30T09:19:14;93175.56;;;5.86;89.59
7660;BME280;3872;47.902;8.162;2024-01-30T09:21:40;93190.00;;;6.46;83.81
7660;BME280;3872;47.902;8.162;2024-01-30T09:24:07;93185.22;;;6.43;84.30
7660;BME280;3872;47.902;8.162;2024-01-30T09:26:34;93182.31;;;6.56;81.10
7660;BME280;3872;47.902;8.162;2024-01-30T09:29:04;93187.78;;;6.09;86.97
7660;BME280;3872;47.902;8.162;2024-01-30T09:31:32;93189.66;;;6.42;86.78
7660;BME280;3872;47.902;8.162;2024-01-30T09:33:58;93182.22;;;6.84;86.57
7660;BME280;3872;47.902;8.162;2024-01-30T09:36:25;93186.59;;;6.79;91.42
7660;BME280;3872;47.902;8.162;2024-01-30T09:38:53;93185.88;;;7.00;90.10
7660;BME280;3872;47.902;8.162;2024-01-30T09:41:20;93186.09;;;6.48;94.71
7660;BME280;3872;47.902;8.162;2024-01-30T09:43:50;93189.91;;;7.07;92.20
7660;BME280;3872;47.902;8.162;2024-01-30T09:46:17;93187.91;;;7.75;82.38
7660;BME280;3872;47.902;8.162;2024-01-30T09:48:46;93188.53;;;7.38;82.53
7660;BME280;3872;47.902;8.162;2024-01-30T09:51:14;93185.47;;;7.68;82.84
7660;BME280;3872;47.902;8.162;2024-01-30T09:53:42;93190.81;;;6.80;91.12
7660;BME280;3872;47.902;8.162;2024-01-30T09:56:09;93190.78;;;7.52;84.16
7660;BME280;3872;47.902;8.162;2024-01-30T09:58:36;93188.78;;;7.80;78.93
7660;BME280;3872;47.902;8.162;2024-01-30T10:01:05;93177.75;;;8.27;77.52
7660;BME280;3872;47.902;8.162;2024-01-30T10:03:31;93188.97;;;8.44;77.96
7660;BME280;3872;47.902;8.162;2024-01-30T10:06:01;93185.75;;;8.69;70.78
7660;BME280;3872;47.902;8.162;2024-01-30T10:08:27;93194.09;;;7.47;85.45
7660;BME280;3872;47.902;8.162;2024-01-30T10:10:55;93183.78;;;8.27;78.26
7660;BME280;3872;47.902;8.162;2024-01-30T10:13:21;93193.91;;;8.19;78.32
7660;BME280;3872;47.902;8.162;2024-01-30T10:15:48;93195.13;;;8.33;81.27
7660;BME280;3872;47.902;8.162;2024-01-30T10:18:15;93185.78;;;7.72;90.62
7660;BME280;3872;47.902;8.162;2024-01-30T10:20:42;93188.56;;;8.57;77.65
7660;BME280;3872;47.902;8.162;2024-01-30T10:23:11;93187.44;;;8.26;76.25
7660;BME280;3872;47.902;8.162;2024-01-30T10:25:38;93186.38;;;8.49;69.21
7660;BME280;3872;47.902;8.162;2024-01-30T10:28:05;93183.97;;;8.43;76.20
7660;BME280;3872;47.902;8.162;2024-01-30T10:30:31;93188.31;;;8.91;71.34
7660;BME280;3872;47.902;8.162;2024-01-30T10:32:58;93182.69;;;9.09;59.11
7660;BME280;3872;47.902;8.162;2024-01-30T10:35:25;93181.75;;;9.88;58.41
7660;BME280;3872;47.902;8.162;2024-01-30T10:37:51;93179.91;;;10.50;53.83
7660;BME280;3872;47.902;8.162;2024-01-30T10:40:21;93182.28;;;10.57;57.10
7660;BME280;3872;47.902;8.162;2024-01-30T10:42:50;93181.44;;;10.46;55.51
7660;BME280;3872;47.902;8.162;2024-01-30T10:45:21;93171.75;;;10.57;58.03
7660;BME280;3872;47.902;8.162;2024-01-30T10:47:49;93172.78;;;10.66;57.86
7660;BME280;3872;47.902;8.162;2024-01-30T10:50:16;93172.81;;;11.07;58.77
7660;BME280;3872;47.902;8.162;2024-01-30T10:52:43;93164.88;;;9.68;67.42
7660;BME280;3872;47.902;8.162;2024-01-30T10:55:11;93170.13;;;10.36;66.62
7660;BME280;3872;47.902;8.162;2024-01-30T10:57:39;93167.28;;;10.73;56.76
7660;BME280;3872;47.902;8.162;2024-01-30T11:00:08;93165.69;;;11.07;56.98
7660;BME280;3872;47.902;8.162;2024-01-30T11:02:37;93162.72;;;11.49;56.85
7660;BME280;3872;47.902;8.162;2024-01-30T11:05:05;93159.25;;;11.74;53.91
7660;BME280;3872;47.902;8.162;2024-01-30T11:07:31;93161.94;;;11.38;53.96
7660;BME280;3872;47.902;8.162;2024-01-30T11:10:02;93159.56;;;11.57;55.08
7660;BME280;3872;47.902;8.162;2024-01-30T11:12:30;93158.16;;;11.80;47.59
7660;BME280;3872;47.902;8.162;2024-01-30T11:15:03;93161.34;;;12.36;48.99
7660;BME280;3872;47.902;8.162;2024-01-30T11:17:43;93157.94;;;12.36;50.18
7660;BME280;3872;47.902;8.162;2024-01-30T11:20:10;93154.19;;;12.42;47.74
7660;BME280;3872;47.902;8.162;2024-01-30T11:22:37;93153.50;;;12.65;50.22
7660;BME280;3872;47.902;8.162;2024-01-30T11:25:04;93154.50;;;12.30;40.56
7660;BME280;3872;47.902;8.162;2024-01-30T11:27:30;93155.09;;;11.37;46.15
7660;BME280;3872;47.902;8.162;2024-01-30T11:30:02;93149.22;;;12.35;42.77
7660;BME280;3872;47.902;8.162;2024-01-30T11:32:29;93149.41;;;12.00;42.77
7660;BME280;3872;47.902;8.162;2024-01-30T11:34:56;93141.53;;;12.39;40.96
7660;BME280;3872;47.902;8.162;2024-01-30T11:37:25;93142.38;;;11.70;40.67
7660;BME280;3872;47.902;8.162;2024-01-30T11:39:53;93147.06;;;12.42;38.97
7660;BME280;3872;47.902;8.162;2024-01-30T11:42:23;93146.81;;;13.12;37.98
7660;BME280;3872;47.902;8.162;2024-01-30T11:44:51;93149.09;;;12.11;37.79
7660;BME280;3872;47.902;8.162;2024-01-30T11:47:19;93142.47;;;12.58;37.89
7660;BME280;3872;47.902;8.162;2024-01-30T11:49:46;93144.53;;;13.34;37.38
7660;BME280;3872;47.902;8.162;2024-01-30T11:52:13;93146.59;;;12.35;38.36
7660;BME280;3872;47.902;8.162;2024-01-30T11:54:39;93146.63;;;11.56;39.44
7660;BME280;3872;47.902;8.162;2024-01-30T11:57:06;93142.88;;;12.75;39.73
7660;BME280;3872;47.902;8.162;2024-01-30T11:59:33;93142.88;;;12.75;37.50
7660;BME280;3872;47.902;8.162;2024-01-30T12:01:59;93133.81;;;13.20;36.46
7660;BME280;3872;47.902;8.162;2024-01-30T12:04:29;93123.25;;;13.44;37.73
7660;BME280;3872;47.902;8.162;2024-01-30T12:06:56;93130.78;;;12.69;37.92
7660;BME280;3872;47.902;8.162;2024-01-30T12:09:23;93120.03;;;13.76;37.74
7660;BME280;3872;47.902;8.162;2024-01-30T12:11:49;93119.81;;;14.71;36.00
7660;BME280;3872;47.902;8.162;2024-01-30T12:14:17;93120.91;;;13.90;35.89
7660;BME280;3872;47.902;8.162;2024-01-30T12:16:48;93113.31;;;15.88;34.90
7660;BME280;3872;47.902;8.162;2024-01-30T12:19:21;93117.56;;;16.39;34.42
7660;BME280;3872;47.902;8.162;2024-01-30T12:21:54;93101.75;;;16.56;34.69
7660;BME280;3872;47.902;8.162;2024-01-30T12:24:22;93105.72;;;16.59;34.67
7660;BME280;3872;47.902;8.162;2024-01-30T12:26:49;93105.53;;;16.55;33.17
7660;BME280;3872;47.902;8.162;2024-01-30T12:29:15;93101.50;;;15.81;34.00
7660;BME280;3872;47.902;8.162;2024-01-30T12:31:42;93105.84;;;15.63;33.80
7660;BME280;3872;47.902;8.162;2024-01-30T12:34:09;93096.50;;;16.42;33.65
7660;BME280;3872;47.902;8.162;2024-01-30T12:36:35;93098.81;;;17.16;33.31
7660;BME280;3872;47.902;8.162;2024-01-30T12:39:03;93092.69;;;17.15;33.35
7660;BME280;3872;47.902;8.162;2024-01-30T12:41:31;93105.34;;;17.10;33.43
7660;BME280;3872;47.902;8.162;2024-01-30T12:43:58;93104.72;;;16.19;33.32
7660;BME280;3872;47.902;8.162;2024-01-30T12:46:27;93101.16;;;16.23;33.75
7660;BME280;3872;47.902;8.162;2024-01-30T12:48:54;93109.72;;;16.70;33.93
7660;BME280;3872;47.902;8.162;2024-01-30T12:51:20;93105.69;;;16.23;34.75
7660;BME280;3872;47.902;8.162;2024-01-30T12:53:47;93114.19;;;15.97;35.23
7660;BME280;3872;47.902;8.162;2024-01-30T12:56:15;93119.03;;;15.49;35.35
7660;BME280;3872;47.902;8.162;2024-01-30T12:58:42;93117.81;;;15.14;35.50
7660;BME280;3872;47.902;8.162;2024-01-30T13:01:09;93118.59;;;15.15;36.41
7660;BME280;3872;47.902;8.162;2024-01-30T13:03:36;93120.63;;;15.04;36.96
7660;BME280;3872;47.902;8.162;2024-01-30T13:06:03;93124.34;;;13.67;38.26
7660;BME280;3872;47.902;8.162;2024-01-30T13:08:30;93126.09;;;15.26;36.59
7660;BME280;3872;47.902;8.162;2024-01-30T13:10:56;93123.19;;;15.09;36.45
7660;BME280;3872;47.902;8.162;2024-01-30T13:13:24;93131.66;;;15.57;36.11
7660;BME280;3872;47.902;8.162;2024-01-30T13:15:51;93135.19;;;15.20;36.24
7660;BME280;3872;47.902;8.162;2024-01-30T13:18:17;93130.53;;;14.99;36.62
7660;BME280;3872;47.902;8.162;2024-01-30T13:20:44;93131.41;;;15.26;36.64
7660;BME280;3872;47.902;8.162;2024-01-30T13:23:10;93126.28;;;15.62;36.10
7660;BME280;3872;47.902;8.162;2024-01-30T13:25:37;93129.69;;;15.17;35.87